sensor_id;sensor_type;location;lat;lon;timestamp;pressure;altitude;pressure_sealevel;temperature;humidity
32761;BME280;19126;47.472;7.850;2023-04-07T00:01:29;96621.56;;;6.69;100.00
32761;BME280;19126;47.472;7.850;2023-04-07T00:03:57;96609.41;;;6.59;100.00
32761;BME280;19126;47.472;7.850;2023-04-07T00:06:26;96606.50;;;6.63;100.00
32761;BME280;19126;47.472;7.850;2023-04-07T00:08:53;96606.94;;;6.58;100.00
32761;BME280;19126;47.472;7.850;2023-04-07T00:11:21;96602.47;;;6.50;100.00
32761;BME280;19126;47.472;7.850;2023-04-07T00:13:48;96603.44;;;6.49;100.00
32761;BME280;19126;47.472;7.850;2023-04-07T00:16:15;96601.25;;;6.44;100.00
32761;BME280;19126;47.472;7.850;2023-04-07T00:18:43;96595.16;;;6.36;100.00
32761;BME280;19126;47.472;7.850;2023-04-07T00:21:10;96599.78;;;6.42;100.00
32761;BME280;19126;47.472;7.850;2023-04-07T00:23:39;96592.69;;;6.34;100.00
32761;BME280;19126;47.472;7.850;2023-04-07T00:26:07;96602.75;;;6.29;100.00
32761;BME280;19126;47.472;7.850;2023-04-07T00:28:35;96598.50;;;6.28;100.00
32761;BME280;19126;47.472;7.850;2023-04-07T00:31:02;96602.66;;;6.21;100.00
32761;BME280;19126;47.472;7.850;2023-04-07T00:33:29;96610.78;;;6.18;100.00
32761;BME280;19126;47.472;7.850;2023-04-07T00:35:59;96601.84;;;6.20;100.00
32761;BME280;19126;47.472;7.850;2023-04-07T00:38:27;96602.56;;;6.12;100.00
32761;BME280;19126;47.472;7.850;2023-04-07T00:40:58;96603.69;;;6.10;100.00
32761;BME280;19126;47.472;7.850;2023-04-07T00:43:28;96594.34;;;6.07;100.00
32761;BME280;19126;47.472;7.850;2023-04-07T00:45:55;96598.03;;;6.14;100.00
32761;BME280;19126;47.472;7.850;2023-04-07T00:48:23;96585.66;;;6.16;100.00
32761;BME280;19126;47.472;7.850;2023-04-07T00:50:51;96586.41;;;6.09;100.00
32761;BME280;19126;47.472;7.850;2023-04-07T00:53:19;96587.38;;;6.08;100.00
32761;BME280;19126;47.472;7.850;2023-04-07T00:55:46;96581.63;;;6.04;100.00
32761;BME280;19126;47.472;7.850;2023-04-07T00:58:15;96580.25;;;6.00;100.00
32761;BME280;19126;47.472;7.850;2023-04-07T01:01:00;96574.91;;;6.01;100.00
32761;BME280;19126;47.472;7.850;2023-04-07T01:03:33;96579.44;;;5.99;100.00
32761;BME280;19126;47.472;7.850;2023-04-07T01:06:02;96583.97;;;5.97;100.00
32761;BME280;19126;47.472;7.850;2023-04-07T01:08:37;96572.56;;;5.98;100.00
32761;BME280;19126;47.472;7.850;2023-04-07T01:11:16;96573.28;;;6.00;100.00
32761;BME280;19126;47.472;7.850;2023-04-07T01:13:49;96573.66;;;5.96;100.00
32761;BME280;19126;47.472;7.850;2023-04-07T01:16:25;96567.66;;;5.95;100.00
32761;BME280;19126;47.472;7.850;2023-04-07T01:18:56;96560.81;;;5.94;100.00
32761;BME280;19126;47.472;7.850;2023-04-07T01:21:26;96557.53;;;5.92;100.00
32761;BME280;19126;47.472;7.850;2023-04-07T01:24:33;96558.78;;;5.88;100.00
32761;BME280;19126;47.472;7.850;2023-04-07T01:27:18;96551.75;;;5.89;100.00
32761;BME280;19126;47.472;7.850;2023-04-07T01:29:49;96555.19;;;5.89;100.00
32761;BME280;19126;47.472;7.850;2023-04-07T01:32:19;96549.31;;;5.87;100.00
32761;BME280;19126;47.472;7.850;2023-04-07T01:34:48;96549.81;;;5.91;100.00
32761;BME280;19126;47.472;7.850;2023-04-07T01:37:17;96539.56;;;5.89;100.00
32761;BME280;19126;47.472;7.850;2023-04-07T01:39:45;96538.50;;;5.82;100.00
32761;BME280;19126;47.472;7.850;2023-04-07T01:42:12;96532.47;;;5.81;100.00
32761;BME280;19126;47.472;7.850;2023-04-07T01:44:41;96528.59;;;5.85;100.00
32761;BME280;19126;47.472;7.850;2023-04-07T01:47:11;96535.91;;;5.82;100.00
32761;BME280;19126;47.472;7.850;2023-04-07T01:49:40;96530.16;;;5.78;100.00
32761;BME280;19126;47.472;7.850;2023-04-07T01:52:08;96522.41;;;5.68;100.00
32761;BME280;19126;47.472;7.850;2023-04-07T01:54:36;96525.50;;;5.72;100.00
32761;BME280;19126;47.472;7.850;2023-04-07T01:57:04;96514.72;;;5.67;100.00
32761;BME280;19126;47.472;7.850;2023-04-07T01:59:31;96513.44;;;5.71;100.00
32761;BME280;19126;47.472;7.850;2023-04-07T02:01:58;96508.78;;;5.75;100.00
32761;BME280;19126;47.472;7.850;2023-04-07T02:04:33;96498.88;;;5.78;100.00
32761;BME280;19126;47.472;7.850;2023-04-07T02:07:12;96498.88;;;5.78;100.00
32761;BME280;19126;47.472;7.850;2023-04-07T02:09:42;96500.28;;;5.72;100.00
32761;BME280;19126;47.472;7.850;2023-04-07T02:12:13;96491.41;;;5.65;100.00
32761;BME280;19126;47.472;7.850;2023-04-07T02:14:42;96490.34;;;5.58;100.00
32761;BME280;19126;47.472;7.850;2023-04-07T02:17:11;96488.44;;;5.60;100.00
32761;BME280;19126;47.472;7.850;2023-04-07T02:19:41;96484.97;;;5.60;100.00
32761;BME280;19126;47.472;7.850;2023-04-07T02:22:08;96470.91;;;5.52;100.00
32761;BME280;19126;47.472;7.850;2023-04-07T02:24:39;96473.56;;;5.42;100.00
32761;BME280;19126;47.472;7.850;2023-04-07T02:27:07;96468.94;;;5.36;100.00
32761;BME280;19126;47.472;7.850;2023-04-07T02:29:34;96467.72;;;5.31;100.00
32761;BME280;19126;47.472;7.850;2023-04-07T02:32:02;96459.66;;;5.24;100.00
32761;BME280;19126;47.472;7.850;2023-04-07T02:34:29;96456.00;;;5.17;100.00
32761;BME280;19126;47.472;7.850;2023-04-07T02:36:58;96457.13;;;5.14;100.00
32761;BME280;19126;47.472;7.850;2023-04-07T02:39:25;96449.03;;;5.07;100.00
32761;BME280;19126;47.472;7.850;2023-04-07T02:41:52;96450.16;;;5.05;100.00
32761;BME280;19126;47.472;7.850;2023-04-07T02:44:20;96446.34;;;4.99;100.00
32761;BME280;19126;47.472;7.850;2023-04-07T02:46:47;96445.81;;;4.95;100.00
32761;BME280;19126;47.472;7.850;2023-04-07T02:49:15;96455.00;;;4.90;100.00
32761;BME280;19126;47.472;7.850;2023-04-07T02:51:42;96471.88;;;4.86;100.00
32761;BME280;19126;47.472;7.850;2023-04-07T02:54:13;96456.81;;;4.79;100.00
32761;BME280;19126;47.472;7.850;2023-04-07T02:56:40;96463.00;;;4.78;100.00
32761;BME280;19126;47.472;7.850;2023-04-07T02:59:07;96458.22;;;4.74;100.00
32761;BME280;19126;47.472;7.850;2023-04-07T03:01:35;96469.19;;;4.67;100.00
32761;BME280;19126;47.472;7.850;2023-04-07T03:04:03;96460.56;;;4.67;100.00
32761;BME280;19126;47.472;7.850;2023-04-07T03:06:31;96456.06;;;4.59;100.00
32761;BME280;19126;47.472;7.850;2023-04-07T03:08:58;96453.88;;;4.54;100.00
32761;BME280;19126;47.472;7.850;2023-04-07T03:11:27;96458.94;;;4.56;100.00
32761;BME280;19126;47.472;7.850;2023-04-07T03:13:55;96453.88;;;4.54;100.00
32761;BME280;19126;47.472;7.850;2023-04-07T03:16:22;96447.03;;;4.53;100.00
32761;BME280;19126;47.472;7.850;2023-04-07T03:18:49;96450.59;;;4.52;100.00
32761;BME280;19126;47.472;7.850;2023-04-07T03:21:17;96444.59;;;4.52;100.00
32761;BME280;19126;47.472;7.850;2023-04-07T03:23:44;96445.94;;;4.56;100.00
32761;BME280;19126;47.472;7.850;2023-04-07T03:26:12;96439.78;;;4.57;100.00
32761;BME280;19126;47.472;7.850;2023-04-07T03:28:43;96427.72;;;4.56;100.00
32761;BME280;19126;47.472;7.850;2023-04-07T03:31:11;96435.25;;;4.59;100.00
32761;BME280;19126;47.472;7.850;2023-04-07T03:33:41;96428.25;;;4.60;100.00
32761;BME280;19126;47.472;7.850;2023-04-07T03:36:08;96431.97;;;4.57;100.00
32761;BME280;19126;47.472;7.850;2023-04-07T03:38:36;96436.22;;;4.58;100.00
32761;BME280;19126;47.472;7.850;2023-04-07T03:41:03;96428.81;;;4.53;100.00
32761;BME280;19126;47.472;7.850;2023-04-07T03:43:31;96421.69;;;4.55;100.00
32761;BME280;19126;47.472;7.850;2023-04-07T03:45:59;96416.78;;;4.52;100.00
32761;BME280;19126;47.472;7.850;2023-04-07T03:48:26;96407.22;;;4.53;100.00
32761;BME280;19126;47.472;7.850;2023-04-07T03:50:54;96405.84;;;4.49;100.00
32761;BME280;19126;47.472;7.850;2023-04-07T03:53:21;96398.31;;;4.46;100.00
32761;BME280;19126;47.472;7.850;2023-04-07T03:55:49;96391.78;;;4.42;100.00
32761;BME280;19126;47.472;7.850;2023-04-07T03:58:17;96378.09;;;4.39;100.00
32761;BME280;19126;47.472;7.850;2023-04-07T04:00:44;96386.28;;;4.35;100.00
32761;BME280;19126;47.472;7.850;2023-04-07T04:03:13;96392.50;;;4.24;100.00
32761;BME280;19126;47.472;7.850;2023-04-07T04:05:40;96386.22;;;4.17;100.00
32761;BME280;19126;47.472;7.850;2023-04-07T04:08:07;96383.91;;;4.14;100.00
32761;BME280;19126;47.472;7.850;2023-04-07T04:10:35;96372.81;;;4.12;100.00
32761;BME280;19126;47.472;7.850;2023-04-07T04:13:02;96369.38;;;4.11;100.00
32761;BME280;19126;47.472;7.850;2023-04-07T04:15:31;96375.53;;;4.10;100.00
32761;BME280;19126;47.472;7.850;2023-04-07T04:17:58;96372.94;;;4.10;100.00
32761;BME280;19126;47.472;7.850;2023-04-07T04:20:27;96373.06;;;4.18;100.00
32761;BME280;19126;47.472;7.850;2023-04-07T04:22:55;96370.91;;;4.14;100.00
32761;BME280;19126;47.472;7.850;2023-04-07T04:25:22;96368.56;;;4.10;100.00
32761;BME280;19126;47.472;7.850;2023-04-07T04:27:50;96370.75;;;4.15;100.00
32761;BME280;19126;47.472;7.850;2023-04-07T04:30:17;96385.53;;;4.15;100.00
32761;BME280;19126;47.472;7.850;2023-04-07T04:32:44;96378.69;;;4.14;100.00
32761;BME280;19126;47.472;7.850;2023-04-07T04:35:12;96378.53;;;4.15;100.00
32761;BME280;19126;47.472;7.850;2023-04-07T04:37:41;96380.19;;;4.16;100.00
32761;BME280;19126;47.472;7.850;2023-04-07T04:40:10;96375.13;;;4.15;100.00
32761;BME280;19126;47.472;7.850;2023-04-07T04:42:37;96380.34;;;4.15;100.00
32761;BME280;19126;47.472;7.850;2023-04-07T04:45:06;96374.97;;;4.16;100.00
32761;BME280;19126;47.472;7.850;2023-04-07T04:47:33;96384.53;;;4.25;100.00
32761;BME280;19126;47.472;7.850;2023-04-07T04:50:07;96383.31;;;4.30;100.00
32761;BME280;19126;47.472;7.850;2023-04-07T04:52:37;96379.84;;;4.39;100.00
32761;BME280;19126;47.472;7.850;2023-04-07T04:55:07;96387.94;;;4.36;100.00
32761;BME280;19126;47.472;7.850;2023-04-07T04:57:34;96392.75;;;4.31;100.00
32761;BME280;19126;47.472;7.850;2023-04-07T05:00:02;96385.78;;;4.31;100.00
32761;BME280;19126;47.472;7.850;2023-04-07T05:02:30;96384.66;;;4.34;100.00
32761;BME280;19126;47.472;7.850;2023-04-07T05:04:57;96378.94;;;4.30;100.00
32761;BME280;19126;47.472;7.850;2023-04-07T05:07:25;96379.34;;;4.25;100.00
32761;BME280;19126;47.472;7.850;2023-04-07T05:09:52;96377.56;;;4.26;100.00
32761;BME280;19126;47.472;7.850;2023-04-07T05:12:21;96377.56;;;4.26;100.00
32761;BME280;19126;47.472;7.850;2023-04-07T05:14:48;96370.19;;;4.21;100.00
32761;BME280;19126;47.472;7.850;2023-04-07T05:17:16;96363.50;;;4.19;100.00
32761;BME280;19126;47.472;7.850;2023-04-07T05:19:43;96367.34;;;4.15;100.00
32761;BME280;19126;47.472;7.850;2023-04-07T05:22:10;96367.63;;;4.12;100.00
32761;BME280;19126;47.472;7.850;2023-04-07T05:24:40;96362.53;;;4.10;100.00
32761;BME280;19126;47.472;7.850;2023-04-07T05:27:07;96364.34;;;4.09;100.00
32761;BME280;19126;47.472;7.850;2023-04-07T05:29:36;96354.91;;;4.08;100.00
32761;BME280;19126;47.472;7.850;2023-04-07T05:32:04;96359.81;;;4.12;100.00
32761;BME280;19126;47.472;7.850;2023-04-07T05:34:32;96362.13;;;4.15;100.00
32761;BME280;19126;47.472;7.850;2023-04-07T05:36:59;96356.50;;;4.19;100.00
32761;BME280;19126;47.472;7.850;2023-04-07T05:39:26;96357.88;;;4.23;100.00
32761;BME280;19126;47.472;7.850;2023-04-07T05:41:53;96370.59;;;4.27;100.00
32761;BME280;19126;47.472;7.850;2023-04-07T05:44:21;96364.00;;;4.32;100.00
32761;BME280;19126;47.472;7.850;2023-04-07T05:46:50;96370.69;;;4.45;100.00
32761;BME280;19126;47.472;7.850;2023-04-07T05:49:20;96381.88;;;4.55;100.00
32761;BME280;19126;47.472;7.850;2023-04-07T05:51:47;96394.94;;;4.73;100.00
32761;BME280;19126;47.472;7.850;2023-04-07T05:54:18;96390.41;;;4.75;100.00
32761;BME280;19126;47.472;7.850;2023-04-07T05:56:45;96394.53;;;4.78;100.00
32761;BME280;19126;47.472;7.850;2023-04-07T05:59:13;96399.84;;;4.76;100.00
32761;BME280;19126;47.472;7.850;2023-04-07T06:01:41;96393.69;;;4.77;100.00
32761;BME280;19126;47.472;7.850;2023-04-07T06:04:09;96390.50;;;4.83;100.00
32761;BME280;19126;47.472;7.850;2023-04-07T06:06:42;96396.78;;;4.91;100.00
32761;BME280;19126;47.472;7.850;2023-04-07T06:09:09;96395.09;;;4.99;100.00
32761;BME280;19126;47.472;7.850;2023-04-07T06:11:36;96392.69;;;5.16;100.00
32761;BME280;19126;47.472;7.850;2023-04-07T06:14:03;96402.13;;;5.17;100.00
32761;BME280;19126;47.472;7.850;2023-04-07T06:16:31;96402.44;;;5.14;100.00
32761;BME280;19126;47.472;7.850;2023-04-07T06:18:58;96402.28;;;5.16;100.00
32761;BME280;19126;47.472;7.850;2023-04-07T06:21:27;96402.56;;;5.12;100.00
32761;BME280;19126;47.472;7.850;2023-04-07T06:23:54;96411.88;;;5.15;100.00
32761;BME280;19126;47.472;7.850;2023-04-07T06:26:21;96415.84;;;5.19;100.00
32761;BME280;19126;47.472;7.850;2023-04-07T06:28:49;96402.94;;;5.18;100.00
32761;BME280;19126;47.472;7.850;2023-04-07T06:31:16;96407.06;;;5.20;100.00
32761;BME280;19126;47.472;7.850;2023-04-07T06:33:44;96412.84;;;5.14;100.00
32761;BME280;19126;47.472;7.850;2023-04-07T06:36:11;96411.44;;;5.20;100.00
32761;BME280;19126;47.472;7.850;2023-04-07T06:38:40;96412.00;;;5.13;100.00
32761;BME280;19126;47.472;7.850;2023-04-07T06:41:07;96417.09;;;5.15;100.00
32761;BME280;19126;47.472;7.850;2023-04-07T06:43:37;96415.28;;;5.16;100.00
32761;BME280;19126;47.472;7.850;2023-04-07T06:46:05;96414.03;;;5.20;100.00
32761;BME280;19126;47.472;7.850;2023-04-07T06:48:32;96413.06;;;5.21;100.00
32761;BME280;19126;47.472;7.850;2023-04-07T06:50:59;96417.19;;;5.23;100.00
32761;BME280;19126;47.472;7.850;2023-04-07T06:53:27;96420.97;;;5.29;100.00
32761;BME280;19126;47.472;7.850;2023-04-07T06:56:04;96413.88;;;5.31;100.00
32761;BME280;19126;47.472;7.850;2023-04-07T06:58:32;96418.31;;;5.39;100.00
32761;BME280;19126;47.472;7.850;2023-04-07T07:01:00;96424.22;;;5.41;100.00
32761;BME280;19126;47.472;7.850;2023-04-07T07:03:28;96426.53;;;5.44;100.00
32761;BME280;19126;47.472;7.850;2023-04-07T07:05:57;96430.34;;;5.50;100.00
32761;BME280;19126;47.472;7.850;2023-04-07T07:08:26;96427.38;;;5.63;100.00
32761;BME280;19126;47.472;7.850;2023-04-07T07:10:54;96430.63;;;5.65;100.00
32761;BME280;19126;47.472;7.850;2023-04-07T07:13:24;96431.19;;;5.68;100.00
32761;BME280;19126;47.472;7.850;2023-04-07T07:15:52;96433.41;;;5.81;100.00
32761;BME280;19126;47.472;7.850;2023-04-07T07:18:20;96435.13;;;5.91;100.00
32761;BME280;19126;47.472;7.850;2023-04-07T07:20:48;96430.28;;;5.96;100.00
32761;BME280;19126;47.472;7.850;2023-04-07T07:23:19;96433.34;;;6.09;100.00
32761;BME280;19126;47.472;7.850;2023-04-07T07:25:46;96439.97;;;6.22;100.00
32761;BME280;19126;47.472;7.850;2023-04-07T07:28:13;96435.13;;;6.27;100.00
32761;BME280;19126;47.472;7.850;2023-04-07T07:30:42;96438.66;;;6.44;100.00
32761;BME280;19126;47.472;7.850;2023-04-07T07:33:09;96444.19;;;6.41;100.00
32761;BME280;19126;47.472;7.850;2023-04-07T07:35:37;96449.41;;;6.41;100.00
32761;BME280;19126;47.472;7.850;2023-04-07T07:38:05;96445.72;;;6.52;100.00
32761;BME280;19126;47.472;7.850;2023-04-07T07:40:32;96436.63;;;6.56;100.00
32761;BME280;19126;47.472;7.850;2023-04-07T07:43:02;96445.28;;;6.56;100.00
32761;BME280;19126;47.472;7.850;2023-04-07T07:45:31;96455.41;;;6.59;100.00
32761;BME280;19126;47.472;7.850;2023-04-07T07:48:00;96446.25;;;6.55;100.00
32761;BME280;19126;47.472;7.850;2023-04-07T07:50:28;96456.75;;;6.64;100.00
32761;BME280;19126;47.472;7.850;2023-04-07T07:52:56;96455.09;;;6.63;100.00
32761;BME280;19126;47.472;7.850;2023-04-07T07:55:26;96464.72;;;6.62;100.00
32761;BME280;19126;47.472;7.850;2023-04-07T07:57:53;96453.47;;;6.62;100.00
32761;BME280;19126;47.472;7.850;2023-04-07T08:00:21;96466.88;;;6.67;100.00
32761;BME280;19126;47.472;7.850;2023-04-07T08:02:48;96463.84;;;6.53;100.00
32761;BME280;19126;47.472;7.850;2023-04-07T08:05:17;96464.16;;;6.50;100.00
32761;BME280;19126;47.472;7.850;2023-04-07T08:07:45;96476.22;;;6.51;100.00
32761;BME280;19126;47.472;7.850;2023-04-07T08:10:14;96475.03;;;6.45;100.00
32761;BME280;19126;47.472;7.850;2023-04-07T08:12:41;96473.47;;;6.53;100.00
32761;BME280;19126;47.472;7.850;2023-04-07T08:15:09;96494.28;;;6.44;100.00
32761;BME280;19126;47.472;7.850;2023-04-07T08:17:37;96491.28;;;6.39;100.00
32761;BME280;19126;47.472;7.850;2023-04-07T08:20:06;96492.44;;;6.37;100.00
32761;BME280;19126;47.472;7.850;2023-04-07T08:22:37;96489.16;;;6.35;100.00
32761;BME280;19126;47.472;7.850;2023-04-07T08:25:05;96489.16;;;6.35;100.00
32761;BME280;19126;47.472;7.850;2023-04-07T08:27:35;96492.72;;;6.34;100.00
32761;BME280;19126;47.472;7.850;2023-04-07T08:30:05;96495.47;;;6.32;100.00
32761;BME280;19126;47.472;7.850;2023-04-07T08:32:36;96501.66;;;6.31;100.00
32761;BME280;19126;47.472;7.850;2023-04-07T08:35:07;96502.63;;;6.30;100.00
32761;BME280;19126;47.472;7.850;2023-04-07T08:37:38;96498.25;;;6.30;100.00
32761;BME280;19126;47.472;7.850;2023-04-07T08:40:07;96502.25;;;6.25;100.00
32761;BME280;19126;47.472;7.850;2023-04-07T08:42:34;96504.56;;;6.28;100.00
32761;BME280;19126;47.472;7.850;2023-04-07T08:45:06;96516.66;;;6.29;100.00
32761;BME280;19126;47.472;7.850;2023-04-07T08:47:35;96508.63;;;6.22;100.00
32761;BME280;19126;47.472;7.850;2023-04-07T08:50:05;96507.66;;;6.23;100.00
32761;BME280;19126;47.472;7.850;2023-04-07T08:52:40;96520.09;;;6.29;100.00
32761;BME280;19126;47.472;7.850;2023-04-07T08:55:10;96526.34;;;6.37;100.00
32761;BME280;19126;47.472;7.850;2023-04-07T08:57:41;96523.66;;;6.47;100.00
32761;BME280;19126;47.472;7.850;2023-04-07T09:00:10;96519.09;;;6.49;100.00
32761;BME280;19126;47.472;7.850;2023-04-07T09:02:39;96528.25;;;6.53;100.00
32761;BME280;19126;47.472;7.850;2023-04-07T09:05:09;96526.41;;;6.45;100.00
32761;BME280;19126;47.472;7.850;2023-04-07T09:07:38;96529.31;;;6.42;100.00
32761;BME280;19126;47.472;7.850;2023-04-07T09:10:10;96530.13;;;6.42;100.00
32761;BME280;19126;47.472;7.850;2023-04-07T09:12:37;96528.66;;;6.40;100.00
32761;BME280;19126;47.472;7.850;2023-04-07T09:15:07;96529.41;;;6.32;100.00
32761;BME280;19126;47.472;7.850;2023-04-07T09:17:35;96527.81;;;6.39;100.00
32761;BME280;19126;47.472;7.850;2023-04-07T09:20:03;96535.66;;;6.39;100.00
32761;BME280;19126;47.472;7.850;2023-04-07T09:22:35;96538.06;;;6.33;100.00
32761;BME280;19126;47.472;7.850;2023-04-07T09:25:17;96531.50;;;6.28;100.00
32761;BME280;19126;47.472;7.850;2023-04-07T09:27:56;96534.41;;;6.25;100.00
32761;BME280;19126;47.472;7.850;2023-04-07T09:30:24;96543.88;;;6.26;100.00
32761;BME280;19126;47.472;7.850;2023-04-07T09:32:51;96546.41;;;6.18;100.00
32761;BME280;19126;47.472;7.850;2023-04-07T09:35:18;96555.13;;;6.09;100.00
32761;BME280;19126;47.472;7.850;2023-04-07T09:38:01;96549.31;;;5.87;100.00
32761;BME280;19126;47.472;7.850;2023-04-07T09:40:31;96558.22;;;5.84;100.00
32761;BME280;19126;47.472;7.850;2023-04-07T09:43:00;96554.28;;;5.80;100.00
32761;BME280;19126;47.472;7.850;2023-04-07T09:45:29;96552.13;;;5.76;100.00
32761;BME280;19126;47.472;7.850;2023-04-07T09:47:58;96558.41;;;5.83;100.00
32761;BME280;19126;47.472;7.850;2023-04-07T09:50:32;96552.59;;;5.89;100.00
32761;BME280;19126;47.472;7.850;2023-04-07T09:53:03;96557.34;;;5.94;100.00
32761;BME280;19126;47.472;7.850;2023-04-07T09:55:32;96559.78;;;6.05;100.00
32761;BME280;19126;47.472;7.850;2023-04-07T09:58:01;96552.00;;;5.95;100.00
32761;BME280;19126;47.472;7.850;2023-04-07T10:00:31;96560.31;;;6.09;100.00
32761;BME280;19126;47.472;7.850;2023-04-07T10:02:58;96558.41;;;6.11;100.00
32761;BME280;19126;47.472;7.850;2023-04-07T10:05:27;96565.16;;;6.04;100.00
32761;BME280;19126;47.472;7.850;2023-04-07T10:07:55;96559.84;;;5.95;100.00
32761;BME280;19126;47.472;7.850;2023-04-07T10:10:25;96555.41;;;5.96;100.00
32761;BME280;19126;47.472;7.850;2023-04-07T10:12:56;96559.97;;;5.94;100.00
32761;BME280;19126;47.472;7.850;2023-04-07T10:15:24;96556.97;;;5.89;100.00
32761;BME280;19126;47.472;7.850;2023-04-07T10:17:53;96553.56;;;5.88;100.00
32761;BME280;19126;47.472;7.850;2023-04-07T10:20:22;96554.75;;;5.94;100.00
32761;BME280;19126;47.472;7.850;2023-04-07T10:22:51;96557.25;;;5.85;100.00
32761;BME280;19126;47.472;7.850;2023-04-07T10:25:22;96559.34;;;5.82;100.00
32761;BME280;19126;47.472;7.850;2023-04-07T10:27:56;96565.25;;;5.84;100.00
32761;BME280;19126;47.472;7.850;2023-04-07T10:30:27;96558.53;;;5.81;100.00
32761;BME280;19126;47.472;7.850;2023-04-07T10:32:56;96554.44;;;5.79;100.00
32761;BME280;19126;47.472;7.850;2023-04-07T10:35:24;96556.38;;;5.77;100.00
32761;BME280;19126;47.472;7.850;2023-04-07T10:38:11;96560.91;;;5.75;100.00
32761;BME280;19126;47.472;7.850;2023-04-07T10:40:41;96564.41;;;5.83;100.00
32761;BME280;19126;47.472;7.850;2023-04-07T10:43:10;96559.78;;;6.05;100.00
32761;BME280;19126;47.472;7.850;2023-04-07T10:45:57;96561.22;;;6.18;100.00
32761;BME280;19126;47.472;7.850;2023-04-07T10:48:27;96567.84;;;6.30;100.00
32761;BME280;19126;47.472;7.850;2023-04-07T10:51:15;96561.44;;;6.42;100.00
32761;BME280;19126;47.472;7.850;2023-04-07T10:54:16;96563.16;;;6.52;100.00
32761;BME280;19126;47.472;7.850;2023-04-07T10:57:12;96564.34;;;6.57;100.00
32761;BME280;19126;47.472;7.850;2023-04-07T11:00:15;96560.19;;;6.65;100.00
32761;BME280;19126;47.472;7.850;2023-04-07T11:02:43;96564.78;;;6.71;100.00
32761;BME280;19126;47.472;7.850;2023-04-07T11:05:20;96570.09;;;6.79;100.00
32761;BME280;19126;47.472;7.850;2023-04-07T11:07:52;96563.88;;;6.98;100.00
32761;BME280;19126;47.472;7.850;2023-04-07T11:10:22;96568.00;;;7.09;100.00
32761;BME280;19126;47.472;7.850;2023-04-07T11:13:05;96564.78;;;7.15;100.00
32761;BME280;19126;47.472;7.850;2023-04-07T11:15:35;96566.47;;;7.25;100.00
32761;BME280;19126;47.472;7.850;2023-04-07T11:18:16;96559.81;;;7.30;100.00
32761;BME280;19126;47.472;7.850;2023-04-07T11:20:49;96563.44;;;7.38;100.00
32761;BME280;19126;47.472;7.850;2023-04-07T11:23:18;96569.59;;;7.28;100.00
32761;BME280;19126;47.472;7.850;2023-04-07T11:25:49;96565.84;;;7.31;100.00
32761;BME280;19126;47.472;7.850;2023-04-07T11:28:17;96565.53;;;7.34;100.00
32761;BME280;19126;47.472;7.850;2023-04-07T11:30:49;96572.09;;;7.38;100.00
32761;BME280;19126;47.472;7.850;2023-04-07T11:33:19;96570.81;;;7.42;100.00
32761;BME280;19126;47.472;7.850;2023-04-07T11:35:52;96573.78;;;7.47;100.00
32761;BME280;19126;47.472;7.850;2023-04-07T11:38:22;96568.75;;;7.54;100.00
32761;BME280;19126;47.472;7.850;2023-04-07T11:40:50;96570.84;;;7.51;100.00
32761;BME280;19126;47.472;7.850;2023-04-07T11:43:20;96575.06;;;7.43;100.00
32761;BME280;19126;47.472;7.850;2023-04-07T11:48:50;96571.38;;;7.28;100.00
32761;BME280;19126;47.472;7.850;2023-04-07T11:51:19;96575.63;;;7.29;100.00
32761;BME280;19126;47.472;7.850;2023-04-07T11:53:52;96582.81;;;7.27;100.00
32761;BME280;19126;47.472;7.850;2023-04-07T11:56:20;96581.34;;;7.24;100.00
32761;BME280;19126;47.472;7.850;2023-04-07T11:58:48;96590.22;;;7.13;100.00
32761;BME280;19126;47.472;7.850;2023-04-07T12:01:16;96581.53;;;7.04;100.00
32761;BME280;19126;47.472;7.850;2023-04-07T12:03:58;96584.66;;;7.08;100.00
32761;BME280;19126;47.472;7.850;2023-04-07T12:06:27;96580.69;;;7.04;100.00
32761;BME280;19126;47.472;7.850;2023-04-07T12:08:55;96590.19;;;7.05;100.00
32761;BME280;19126;47.472;7.850;2023-04-07T12:11:22;96580.09;;;7.10;100.00
32761;BME280;19126;47.472;7.850;2023-04-07T12:13:51;96573.94;;;7.19;100.00
32761;BME280;19126;47.472;7.850;2023-04-07T12:16:19;96583.13;;;7.24;100.00
32761;BME280;19126;47.472;7.850;2023-04-07T12:18:47;96580.19;;;7.27;100.00
32761;BME280;19126;47.472;7.850;2023-04-07T12:21:15;96583.13;;;7.24;100.00
32761;BME280;19126;47.472;7.850;2023-04-07T12:23:43;96585.38;;;7.18;100.00
32761;BME280;19126;47.472;7.850;2023-04-07T12:26:11;96587.47;;;7.15;100.00
32761;BME280;19126;47.472;7.850;2023-04-07T12:28:38;96582.41;;;7.13;100.00
32761;BME280;19126;47.472;7.850;2023-04-07T12:31:05;96583.31;;;7.04;100.00
32761;BME280;19126;47.472;7.850;2023-04-07T12:33:33;96587.78;;;7.12;100.00
32761;BME280;19126;47.472;7.850;2023-04-07T12:36:00;96589.56;;;7.11;100.00
32761;BME280;19126;47.472;7.850;2023-04-07T12:38:29;96591.06;;;7.14;100.00
32761;BME280;19126;47.472;7.850;2023-04-07T12:40:57;96595.41;;;7.05;100.00
32761;BME280;19126;47.472;7.850;2023-04-07T12:43:28;96591.94;;;6.96;100.00
32761;BME280;19126;47.472;7.850;2023-04-07T12:45:55;96591.75;;;6.98;100.00
32761;BME280;19126;47.472;7.850;2023-04-07T12:48:23;96593.56;;;6.97;100.00
32761;BME280;19126;47.472;7.850;2023-04-07T12:50:52;96592.97;;;7.03;100.00
32761;BME280;19126;47.472;7.850;2023-04-07T12:53:20;96598.56;;;6.91;100.00
32761;BME280;19126;47.472;7.850;2023-04-07T12:55:49;96599.41;;;6.91;100.00
32761;BME280;19126;47.472;7.850;2023-04-07T12:58:16;96596.31;;;6.96;100.00
32761;BME280;19126;47.472;7.850;2023-04-07T13:00:44;96594.69;;;6.95;100.00
32761;BME280;19126;47.472;7.850;2023-04-07T13:03:12;96599.47;;;6.99;100.00
32761;BME280;19126;47.472;7.850;2023-04-07T13:05:40;96599.09;;;6.94;100.00
32761;BME280;19126;47.472;7.850;2023-04-07T13:08:07;96599.41;;;6.91;100.00
32761;BME280;19126;47.472;7.850;2023-04-07T13:10:38;96607.38;;;6.89;100.00
32761;BME280;19126;47.472;7.850;2023-04-07T13:13:09;96605.06;;;6.86;100.00
32761;BME280;19126;47.472;7.850;2023-04-07T13:15:37;96604.75;;;6.89;100.00